createdAt,value
2022-10-17T00:02:14.384Z,64.66
2022-10-17T00:04:42.453Z,61.02
2022-10-17T00:07:10.479Z,57.40
2022-10-17T00:09:38.507Z,57.06
2022-10-17T00:12:06.350Z,58.89
2022-10-17T00:14:34.624Z,60.50
2022-10-17T00:17:02.663Z,61.52
2022-10-17T00:19:30.457Z,65.26
2022-10-17T00:21:58.212Z,64.12
2022-10-17T00:24:26.189Z,61.04
2022-10-17T00:26:53.996Z,58.04
2022-10-17T00:29:25.945Z,57.80
2022-10-17T00:31:57.056Z,59.06
2022-10-17T00:34:25.853Z,60.22
2022-10-17T00:36:55.682Z,61.43
2022-10-17T00:39:24.147Z,66.07
2022-10-17T00:41:53.202Z,64.21
2022-10-17T00:44:30.528Z,60.81
2022-10-17T00:47:05.592Z,56.30
2022-10-17T00:49:39.473Z,56.89
2022-10-17T00:52:19.598Z,58.64
2022-10-17T00:54:59.562Z,60.42
2022-10-17T00:57:28.673Z,64.53
2022-10-17T00:59:58.778Z,63.01
2022-10-17T01:02:26.979Z,59.82
2022-10-17T01:04:56.813Z,56.32
2022-10-17T01:07:26.607Z,56.30
2022-10-17T01:09:54.841Z,57.78
2022-10-17T01:12:39.213Z,59.69
2022-10-17T01:15:17.423Z,61.35
2022-10-17T01:18:11.078Z,65.80
2022-10-17T01:20:42.420Z,63.31
2022-10-17T01:23:29.169Z,59.98
2022-10-17T01:26:16.452Z,56.48
2022-10-17T01:28:44.546Z,57.48
2022-10-17T01:31:15.266Z,59.43
2022-10-17T01:34:06.146Z,61.10
2022-10-17T01:36:56.997Z,66.26
2022-10-17T01:39:59.664Z,63.51
2022-10-17T01:42:35.517Z,60.59
2022-10-17T01:45:07.968Z,58.58
2022-10-17T01:47:35.903Z,56.94
2022-10-17T01:50:14.659Z,58.26
2022-10-17T01:52:52.059Z,60.05
2022-10-17T01:55:27.394Z,64.92
2022-10-17T01:57:59.163Z,64.05
2022-10-17T02:00:28.308Z,60.93
2022-10-17T02:03:07.945Z,57.63
2022-10-17T02:05:39.014Z,57.81
2022-10-17T02:08:07.269Z,59.06
2022-10-17T02:11:04.565Z,60.83
2022-10-17T02:13:40.430Z,64.85
2022-10-17T02:16:16.467Z,62.74
2022-10-17T02:18:52.064Z,59.62
2022-10-17T02:21:38.831Z,56.44
2022-10-17T02:24:13.346Z,57.10
2022-10-17T02:26:56.587Z,59.07
2022-10-17T02:29:31.609Z,60.66
2022-10-17T02:32:04.121Z,64.82
2022-10-17T02:34:36.977Z,63.95
2022-10-17T02:37:07.700Z,60.11
2022-10-17T02:39:36.509Z,56.63
2022-10-17T02:42:06.706Z,57.14
2022-10-17T02:44:35.442Z,57.89
2022-10-17T02:47:29.638Z,59.39
2022-10-17T02:50:00.848Z,61.12
2022-10-17T02:52:32.815Z,65.62
2022-10-17T02:55:16.229Z,64.52
2022-10-17T02:57:50.369Z,60.93
2022-10-17T03:00:19.253Z,57.82
2022-10-17T03:02:51.199Z,57.82
2022-10-17T03:05:28.431Z,59.51
2022-10-17T03:07:56.976Z,61.07
2022-10-17T03:10:26.028Z,65.55
2022-10-17T03:12:54.366Z,64.66
2022-10-17T03:15:22.157Z,60.87
2022-10-17T03:17:50.927Z,57.23
2022-10-17T03:20:19.129Z,57.29
2022-10-17T03:22:47.839Z,59.05
2022-10-17T03:25:15.926Z,60.07
2022-10-17T03:27:44.329Z,61.36
2022-10-17T03:30:12.217Z,65.32
2022-10-17T03:32:40.328Z,64.37
2022-10-17T03:35:14.790Z,61.30
2022-10-17T03:37:46.163Z,57.48
2022-10-17T03:40:14.586Z,57.30
2022-10-17T03:42:42.480Z,58.93
2022-10-17T03:45:12.158Z,60.29
2022-10-17T03:47:40.417Z,64.27
2022-10-17T03:50:08.975Z,64.49
2022-10-17T03:52:37.945Z,61.27
2022-10-17T03:55:06.262Z,57.90
2022-10-17T03:57:37.071Z,57.57
2022-10-17T04:00:07.078Z,58.95
2022-10-17T04:02:46.420Z,60.99
2022-10-17T04:05:19.037Z,65.14
2022-10-17T04:07:48.041Z,64.14
2022-10-17T04:10:17.175Z,61.15
2022-10-17T04:12:46.368Z,59.40
2022-10-17T04:15:14.823Z,57.16
2022-10-17T04:17:42.969Z,58.07
2022-10-17T04:20:11.042Z,59.87
2022-10-17T04:22:38.858Z,61.08
2022-10-17T04:25:07.694Z,65.55
2022-10-17T04:27:40.367Z,64.55
2022-10-17T04:30:09.144Z,61.36
2022-10-17T04:32:40.100Z,59.52
2022-10-17T04:35:34.972Z,56.73
2022-10-17T04:38:04.357Z,57.89
2022-10-17T04:40:32.317Z,59.50
2022-10-17T04:43:00.311Z,61.37
2022-10-17T04:45:36.075Z,65.83
2022-10-17T04:48:04.750Z,64.52
2022-10-17T04:50:32.751Z,61.24
2022-10-17T04:53:31.960Z,58.01
2022-10-17T04:56:00.378Z,58.33
2022-10-17T04:58:30.539Z,59.71
2022-10-17T05:01:08.746Z,60.99
2022-10-17T05:03:40.723Z,65.41
2022-10-17T05:06:18.060Z,64.62
2022-10-17T05:08:49.090Z,61.26
2022-10-17T05:11:25.522Z,59.24
2022-10-17T05:14:00.384Z,56.87
2022-10-17T05:16:30.910Z,58.12
2022-10-17T05:19:00.843Z,59.74
2022-10-17T05:24:11.873Z,65.60
2022-10-17T05:26:39.959Z,64.47
2022-10-17T05:29:07.969Z,61.77
2022-10-17T05:31:39.183Z,59.42
2022-10-17T05:34:13.076Z,56.93
2022-10-17T05:36:42.625Z,57.91
2022-10-17T05:39:14.791Z,59.14
2022-10-17T05:41:43.361Z,60.66
2022-10-17T05:44:11.398Z,65.10
2022-10-17T05:46:42.785Z,64.48
2022-10-17T05:49:25.223Z,60.78
2022-10-17T05:52:00.316Z,57.52
2022-10-17T05:54:30.712Z,57.73
2022-10-17T05:56:58.858Z,59.59
2022-10-17T05:59:29.964Z,61.22
2022-10-17T06:02:05.348Z,65.53
2022-10-17T06:04:33.483Z,64.30
2022-10-17T06:07:02.908Z,61.60
2022-10-17T06:09:32.687Z,59.74
2022-10-17T06:12:00.639Z,56.96
2022-10-17T06:14:30.219Z,57.37
2022-10-17T06:17:01.812Z,59.32
2022-10-17T06:19:30.002Z,60.92
2022-10-17T06:21:58.629Z,64.31
2022-10-17T06:24:29.357Z,64.27
2022-10-17T06:26:58.457Z,61.58
2022-10-17T06:29:28.487Z,58.23
2022-10-17T06:31:56.436Z,58.23
2022-10-17T06:34:25.120Z,59.51
2022-10-17T06:36:53.192Z,61.08
2022-10-17T06:39:26.982Z,65.04
2022-10-17T06:42:16.487Z,64.35
2022-10-17T06:44:52.474Z,62.18
2022-10-17T06:47:49.229Z,60.43
2022-10-17T06:50:51.370Z,56.98
2022-10-17T06:53:29.238Z,57.45
2022-10-17T06:56:16.303Z,58.84
2022-10-17T06:58:56.116Z,60.65
2022-10-17T07:01:32.295Z,64.36
2022-10-17T07:04:02.448Z,63.34
2022-10-17T07:06:32.506Z,60.67
2022-10-17T07:09:09.793Z,57.60
2022-10-17T07:11:42.691Z,57.21
2022-10-17T07:14:10.644Z,58.72
2022-10-17T07:16:40.679Z,59.61
2022-10-17T07:19:16.383Z,61.21
2022-10-17T07:21:45.498Z,64.44
2022-10-17T07:24:13.884Z,64.09
2022-10-17T07:26:46.959Z,61.13
2022-10-17T07:29:15.862Z,57.87
2022-10-17T07:31:50.325Z,57.25
2022-10-17T07:34:21.799Z,57.87
2022-10-17T07:36:56.731Z,59.75
2022-10-17T07:39:42.675Z,60.65
2022-10-17T07:42:14.730Z,60.66
2022-10-17T07:44:42.896Z,63.51
2022-10-17T07:47:11.382Z,63.77
2022-10-17T07:49:44.630Z,60.27
2022-10-17T07:52:19.357Z,56.55
2022-10-17T07:54:47.898Z,56.38
2022-10-17T07:57:16.243Z,57.88
2022-10-17T07:59:47.970Z,59.04
2022-10-17T08:02:25.521Z,59.72
2022-10-17T08:04:54.305Z,60.45
2022-10-17T08:07:25.500Z,61.41
2022-10-17T08:09:58.904Z,64.52
2022-10-17T08:12:32.861Z,64.28
2022-10-17T08:15:01.621Z,58.63
2022-10-17T08:17:31.220Z,55.83
2022-10-17T08:19:59.197Z,56.32
2022-10-17T08:22:28.238Z,57.76
2022-10-17T08:24:57.939Z,58.03
2022-10-17T08:27:29.373Z,58.38
2022-10-17T08:29:57.719Z,58.62
2022-10-17T08:32:28.162Z,59.08
2022-10-17T08:34:57.918Z,59.29
2022-10-17T08:37:25.794Z,59.36
2022-10-17T08:39:53.602Z,59.25
2022-10-17T08:42:29.652Z,59.22
2022-10-17T08:45:24.789Z,60.01
2022-10-17T08:47:58.946Z,58.54
2022-10-17T08:51:09.763Z,58.40
2022-10-17T08:53:48.212Z,58.99
2022-10-17T08:56:47.560Z,58.41
2022-10-17T08:59:28.052Z,58.24
2022-10-17T09:02:00.477Z,57.78
2022-10-17T09:04:46.694Z,57.56
2022-10-17T09:07:29.407Z,57.56
2022-10-17T09:10:01.800Z,56.95
2022-10-17T09:13:21.301Z,56.52
2022-10-17T09:16:23.375Z,57.07
2022-10-17T09:19:07.428Z,56.07
2022-10-17T09:22:20.927Z,55.62
2022-10-17T09:25:19.817Z,54.85
2022-10-17T09:28:27.506Z,54.44
2022-10-17T09:31:44.955Z,53.51
2022-10-17T09:34:26.732Z,52.95
2022-10-17T09:37:08.592Z,52.77
2022-10-17T09:39:53.698Z,52.34
2022-10-17T09:42:28.836Z,52.17
2022-10-17T09:45:33.525Z,51.79
2022-10-17T09:48:25.709Z,52.08
2022-10-17T09:51:14.959Z,50.45
2022-10-17T09:54:04.656Z,50.34
2022-10-17T09:57:12.842Z,50.39
2022-10-17T10:00:02.733Z,50.05
2022-10-17T10:02:41.679Z,49.58
2022-10-17T10:05:23.127Z,49.76
2022-10-17T10:08:19.399Z,48.61
2022-10-17T10:11:03.491Z,49.64
2022-10-17T10:13:52.230Z,48.01
2022-10-17T10:16:36.658Z,47.34
2022-10-17T10:19:32.681Z,48.02
2022-10-17T10:22:25.558Z,47.14
2022-10-17T10:25:25.319Z,46.70
2022-10-17T10:27:59.358Z,46.99
2022-10-17T10:30:39.151Z,46.70
2022-10-17T10:33:30.223Z,45.27
2022-10-17T10:36:04.015Z,44.41
2022-10-17T10:38:45.567Z,44.98
2022-10-17T10:41:13.790Z,44.77
2022-10-17T10:43:48.702Z,44.25
2022-10-17T10:46:44.698Z,44.32
2022-10-17T10:49:33.775Z,43.48
2022-10-17T10:52:03.999Z,44.06
2022-10-17T10:57:21.551Z,43.65
2022-10-17T11:00:21.366Z,43.51
2022-10-17T11:03:20.093Z,42.56
2022-10-17T11:06:11.522Z,42.48
2022-10-17T11:08:50.387Z,41.96
2022-10-17T11:11:45.008Z,41.98
2022-10-17T11:14:42.892Z,42.19
2022-10-17T11:17:37.652Z,41.97
2022-10-17T11:20:09.322Z,41.70
2022-10-17T11:22:50.643Z,41.60
2022-10-17T11:25:33.135Z,41.61
2022-10-17T11:28:05.575Z,41.26
2022-10-17T11:30:52.087Z,41.37
2022-10-17T11:33:26.093Z,41.40
2022-10-17T11:36:01.619Z,40.53
2022-10-17T11:38:40.401Z,40.88
2022-10-17T11:41:18.131Z,41.33
2022-10-17T11:43:59.488Z,41.58
2022-10-17T11:46:28.835Z,40.93
2022-10-17T11:49:00.750Z,40.63
2022-10-17T11:54:22.619Z,41.16
2022-10-17T11:57:15.565Z,41.05
2022-10-17T12:00:06.900Z,40.36
2022-10-17T12:02:48.719Z,40.83
2022-10-17T12:05:36.268Z,40.79
2022-10-17T12:08:30.577Z,40.76
2022-10-17T12:11:19.052Z,40.51
2022-10-17T12:13:49.632Z,41.04
2022-10-17T12:16:17.682Z,41.34
2022-10-17T12:18:51.179Z,40.15
2022-10-17T12:21:19.015Z,40.20
2022-10-17T12:23:55.846Z,40.47
2022-10-17T12:26:40.310Z,40.08
2022-10-17T12:29:27.119Z,40.21
2022-10-17T12:31:55.270Z,40.72
2022-10-17T12:34:25.468Z,39.79
2022-10-17T12:36:54.647Z,39.65
2022-10-17T12:39:25.783Z,40.21
2022-10-17T12:41:54.172Z,39.34
2022-10-17T12:44:21.994Z,39.99
2022-10-17T12:47:11.399Z,39.37
2022-10-17T12:49:45.969Z,39.58
2022-10-17T12:52:21.993Z,38.50
2022-10-17T12:55:07.231Z,38.94
2022-10-17T12:57:48.232Z,38.02
2022-10-17T13:00:17.563Z,38.22
2022-10-17T13:02:48.990Z,38.29
2022-10-17T13:05:30.005Z,37.60
2022-10-17T13:08:01.351Z,37.50
2022-10-17T13:10:34.022Z,37.03
2022-10-17T13:13:22.017Z,36.26
2022-10-17T13:15:55.053Z,36.44
2022-10-17T13:18:33.583Z,35.46
2022-10-17T13:21:14.899Z,34.66
2022-10-17T13:23:45.653Z,34.00
2022-10-17T13:26:34.131Z,33.42
2022-10-17T13:29:21.006Z,33.81
2022-10-17T13:32:17.948Z,32.40
2022-10-17T13:34:46.089Z,31.66
2022-10-17T13:37:15.807Z,30.58
2022-10-17T13:39:57.988Z,30.80
2022-10-17T13:42:29.911Z,30.48
2022-10-17T13:44:58.999Z,29.32
2022-10-17T13:47:33.629Z,28.96
2022-10-17T13:50:06.852Z,28.88
2022-10-17T13:52:40.911Z,28.25
2022-10-17T13:55:23.623Z,27.98
2022-10-17T13:58:18.716Z,27.53
2022-10-17T14:00:50.843Z,26.67
2022-10-17T14:03:21.846Z,26.18
2022-10-17T14:06:12.005Z,25.74
2022-10-17T14:08:56.711Z,25.62
2022-10-17T14:13:11.214Z,25.49
2022-10-17T14:19:31.776Z,24.83
2022-10-17T14:22:38.594Z,24.16
2022-10-17T14:25:33.030Z,24.31
2022-10-17T14:28:19.756Z,23.63
2022-10-17T14:31:03.753Z,23.68
2022-10-17T14:33:50.679Z,23.12
2022-10-17T14:36:23.091Z,23.12
2022-10-17T14:43:12.310Z,23.17
2022-10-17T14:47:42.731Z,22.94
2022-10-17T14:50:11.665Z,22.86
2022-10-17T14:52:40.785Z,22.57
2022-10-17T14:55:23.163Z,22.43
2022-10-17T14:57:50.896Z,22.41
2022-10-17T15:00:20.380Z,22.05
2022-10-17T15:02:49.799Z,22.32
2022-10-17T15:05:17.852Z,22.20
2022-10-17T15:07:46.441Z,22.14
2022-10-17T15:10:32.040Z,22.32
2022-10-17T15:13:26.179Z,23.18
2022-10-17T15:15:52.667Z,24.61
2022-10-17T15:18:20.417Z,26.12
2022-10-17T15:20:52.668Z,27.58
2022-10-17T15:23:31.562Z,28.65
2022-10-17T15:25:59.588Z,30.17
2022-10-17T15:28:27.478Z,31.07
2022-10-17T15:30:55.356Z,32.84
2022-10-17T15:33:23.237Z,34.02
2022-10-17T15:35:53.016Z,34.65
2022-10-17T15:38:20.859Z,36.04
2022-10-17T15:40:50.949Z,36.50
2022-10-17T15:43:20.037Z,37.36
2022-10-17T15:45:48.448Z,38.40
2022-10-17T15:48:27.217Z,39.24
2022-10-17T15:50:55.066Z,40.20
2022-10-17T15:53:23.935Z,41.20
2022-10-17T15:55:52.206Z,41.93
2022-10-17T15:58:20.148Z,42.76
2022-10-17T16:00:48.460Z,42.98
2022-10-17T16:03:16.437Z,43.70
2022-10-17T16:05:44.331Z,44.38
2022-10-17T16:08:12.067Z,44.84
2022-10-17T16:10:40.641Z,45.36
2022-10-17T16:13:18.524Z,45.66
2022-10-17T16:15:46.725Z,46.13
2022-10-17T16:18:14.932Z,46.39
2022-10-17T16:20:42.799Z,47.15
2022-10-17T16:23:12.510Z,47.97
2022-10-17T16:25:40.890Z,48.89
2022-10-17T16:28:10.129Z,49.15
2022-10-17T16:30:46.468Z,49.57
2022-10-17T16:33:14.398Z,49.89
2022-10-17T16:35:42.794Z,50.55
2022-10-17T16:38:10.891Z,50.65
2022-10-17T16:40:39.642Z,50.51
2022-10-17T16:43:09.810Z,51.00
2022-10-17T16:45:37.626Z,51.64
2022-10-17T16:48:05.902Z,51.60
2022-10-17T16:50:35.650Z,52.00
2022-10-17T16:53:04.076Z,51.91
2022-10-17T16:55:31.923Z,52.42
2022-10-17T16:58:00.229Z,52.67
2022-10-17T17:00:28.449Z,53.13
2022-10-17T17:02:56.510Z,53.14
2022-10-17T17:05:24.269Z,53.75
2022-10-17T17:07:52.156Z,53.91
2022-10-17T17:10:19.885Z,54.41
2022-10-17T17:12:47.787Z,54.68
2022-10-17T17:15:15.751Z,55.19
2022-10-17T17:17:54.977Z,55.42
2022-10-17T17:20:23.706Z,55.45
2022-10-17T17:22:54.645Z,55.81
2022-10-17T17:25:22.938Z,56.03
2022-10-17T17:27:50.850Z,56.38
2022-10-17T17:30:18.724Z,56.45
2022-10-17T17:32:46.648Z,56.86
2022-10-17T17:35:14.399Z,57.34
2022-10-17T17:37:42.387Z,57.51
2022-10-17T17:40:11.284Z,57.75
2022-10-17T17:42:39.075Z,58.15
2022-10-17T17:45:07.614Z,58.56
2022-10-17T17:47:35.524Z,58.97
2022-10-17T17:50:03.753Z,59.29
2022-10-17T17:52:36.889Z,59.08
2022-10-17T17:55:07.786Z,59.28
2022-10-17T17:57:35.580Z,59.82
2022-10-17T18:00:05.018Z,59.95
2022-10-17T18:02:33.059Z,60.09
2022-10-17T18:05:01.055Z,60.38
2022-10-17T18:07:30.344Z,60.66
2022-10-17T18:09:58.713Z,60.61
2022-10-17T18:12:30.312Z,60.90
2022-10-17T18:14:58.497Z,60.90
2022-10-17T18:17:29.841Z,61.08
2022-10-17T18:20:00.568Z,61.74
2022-10-17T18:22:29.690Z,61.53
2022-10-17T18:24:57.641Z,61.86
2022-10-17T18:27:25.434Z,61.99
2022-10-17T18:29:53.618Z,65.24
2022-10-17T18:32:21.879Z,64.72
2022-10-17T18:34:50.427Z,60.26
2022-10-17T18:37:18.347Z,55.87
2022-10-17T18:39:49.234Z,54.43
2022-10-17T18:42:18.083Z,54.75
2022-10-17T18:44:47.435Z,55.14
2022-10-17T18:47:16.183Z,55.38
2022-10-17T18:49:44.013Z,55.75
2022-10-17T18:52:11.864Z,56.05
2022-10-17T18:54:39.595Z,56.77
2022-10-17T18:57:07.523Z,57.14
2022-10-17T18:59:35.378Z,57.53
2022-10-17T19:02:03.234Z,58.11
2022-10-17T19:04:31.093Z,58.78
2022-10-17T19:06:58.838Z,59.34
2022-10-17T19:09:26.666Z,59.85
2022-10-17T19:11:54.634Z,59.79
2022-10-17T19:14:22.446Z,60.33
2022-10-17T19:16:50.951Z,60.46
2022-10-17T19:19:23.864Z,60.58
2022-10-17T19:21:51.922Z,60.89
2022-10-17T19:24:26.490Z,60.94
2022-10-17T19:26:57.566Z,61.15
2022-10-17T19:29:28.442Z,61.54
2022-10-17T19:34:29.048Z,61.45
2022-10-17T19:36:56.819Z,61.64
2022-10-17T19:39:25.157Z,61.72
2022-10-17T19:41:53.168Z,61.53
2022-10-17T19:44:21.976Z,61.60
2022-10-17T19:46:49.812Z,61.41
2022-10-17T19:49:17.966Z,61.42
2022-10-17T19:51:45.797Z,61.45
2022-10-17T19:54:15.297Z,61.40
2022-10-17T19:56:43.510Z,61.47
2022-10-17T19:59:13.699Z,61.54
2022-10-17T20:01:41.818Z,61.52
2022-10-17T20:04:13.399Z,61.74
2022-10-17T20:06:41.520Z,61.89
2022-10-17T20:09:15.689Z,61.94
2022-10-17T20:11:45.377Z,66.10
2022-10-17T20:14:13.145Z,64.95
2022-10-17T20:16:41.333Z,60.39
2022-10-17T20:19:11.108Z,55.94
2022-10-17T20:21:39.768Z,54.86
2022-10-17T20:24:11.044Z,55.44
2022-10-17T20:26:39.873Z,56.66
2022-10-17T20:29:14.359Z,57.58
2022-10-17T20:31:44.342Z,58.12
2022-10-17T20:34:14.084Z,58.63
2022-10-17T20:36:41.938Z,59.40
2022-10-17T20:39:11.142Z,59.75
2022-10-17T20:41:39.229Z,60.06
2022-10-17T20:44:07.324Z,60.29
2022-10-17T20:46:37.647Z,60.52
2022-10-17T20:49:08.309Z,60.83
2022-10-17T20:51:36.119Z,61.17
2022-10-17T20:54:04.707Z,61.26
2022-10-17T20:56:34.370Z,61.40
2022-10-17T20:59:04.991Z,61.62
2022-10-17T21:01:35.279Z,61.31
2022-10-17T21:04:27.067Z,61.34
2022-10-17T21:06:52.252Z,61.27
2022-10-17T21:09:20.610Z,61.29
2022-10-17T21:11:51.227Z,61.33
2022-10-17T21:14:19.164Z,61.27
2022-10-17T21:16:47.344Z,61.15
2022-10-17T21:19:15.931Z,61.11
2022-10-17T21:21:45.754Z,60.99
2022-10-17T21:24:17.379Z,60.97
2022-10-17T21:26:46.811Z,60.96
2022-10-17T21:29:14.897Z,60.96
2022-10-17T21:31:44.038Z,60.83
2022-10-17T21:34:14.834Z,60.84
2022-10-17T21:36:43.840Z,60.79
2022-10-17T21:39:12.723Z,60.81
2022-10-17T21:41:40.987Z,60.89
2022-10-17T21:44:14.899Z,60.90
2022-10-17T21:46:43.289Z,60.95
2022-10-17T21:49:12.476Z,60.96
2022-10-17T21:51:40.764Z,60.95
2022-10-17T21:54:08.667Z,61.00
2022-10-17T21:56:36.525Z,61.10
2022-10-17T21:59:05.470Z,61.42
2022-10-17T22:01:39.731Z,61.76
2022-10-17T22:04:10.890Z,62.02
2022-10-17T22:06:41.011Z,62.15
2022-10-17T22:09:15.997Z,65.35
2022-10-17T22:11:48.664Z,64.48
2022-10-17T22:14:19.092Z,60.50
2022-10-17T22:16:47.974Z,55.62
2022-10-17T22:19:21.949Z,54.34
2022-10-17T22:21:50.104Z,54.82
2022-10-17T22:26:47.481Z,56.33
2022-10-17T22:29:15.808Z,58.01
2022-10-17T22:31:43.680Z,58.17
2022-10-17T22:34:13.448Z,59.50
2022-10-17T22:36:41.700Z,60.27
2022-10-17T22:39:10.053Z,59.75
2022-10-17T22:41:37.963Z,59.90
2022-10-17T22:44:05.886Z,60.69
2022-10-17T22:46:34.178Z,61.06
2022-10-17T22:49:02.145Z,61.19
2022-10-17T22:51:29.926Z,61.47
2022-10-17T22:53:57.758Z,65.13
2022-10-17T22:56:25.749Z,64.91
2022-10-17T22:58:53.601Z,61.14
2022-10-17T23:01:38.491Z,56.96
2022-10-17T23:04:06.804Z,55.89
2022-10-17T23:06:35.123Z,56.91
2022-10-17T23:09:04.450Z,58.56
2022-10-17T23:11:32.379Z,59.15
2022-10-17T23:14:00.198Z,59.57
2022-10-17T23:16:28.143Z,59.97
2022-10-17T23:18:57.488Z,60.58
2022-10-17T23:21:26.274Z,60.90
2022-10-17T23:23:54.088Z,61.55
2022-10-17T23:26:21.895Z,65.09
2022-10-17T23:28:54.629Z,64.71
2022-10-17T23:31:23.434Z,60.37
2022-10-17T23:33:51.400Z,56.73
2022-10-17T23:36:20.494Z,55.94
2022-10-17T23:38:48.800Z,56.97
2022-10-17T23:41:17.145Z,57.81
2022-10-17T23:43:45.244Z,58.63
2022-10-17T23:46:13.863Z,59.44
2022-10-17T23:48:41.866Z,60.01
2022-10-17T23:51:10.838Z,60.51
2022-10-17T23:53:39.928Z,61.12
2022-10-17T23:56:09.362Z,61.72
2022-10-17T23:58:38.369Z,65.60
